sensor_id;sensor_type;location;lat;lon;timestamp;pressure;altitude;pressure_sealevel;temperature;humidity
55675;BME280;41562;44.330;23.802;2023-07-30T00:02:29;99846.03;;;21.46;93.99
55675;BME280;41562;44.330;23.802;2023-07-30T00:05:14;99852.16;;;21.58;92.99
55675;BME280;41562;44.330;23.802;2023-07-30T00:08:03;99844.72;;;21.55;92.93
55675;BME280;41562;44.330;23.802;2023-07-30T00:10:48;99850.69;;;21.61;92.77
55675;BME280;41562;44.330;23.802;2023-07-30T00:13:34;99842.34;;;21.54;93.19
55675;BME280;41562;44.330;23.802;2023-07-30T00:16:25;99839.91;;;21.49;93.71
55675;BME280;41562;44.330;23.802;2023-07-30T00:19:13;99843.97;;;21.23;94.79
55675;BME280;41562;44.330;23.802;2023-07-30T00:22:01;99847.88;;;21.10;95.74
55675;BME280;41562;44.330;23.802;2023-07-30T00:24:48;99853.94;;;21.19;95.22
55675;BME280;41562;44.330;23.802;2023-07-30T00:27:38;99851.84;;;21.29;94.37
55675;BME280;41562;44.330;23.802;2023-07-30T00:30:27;99847.50;;;21.12;95.67
55675;BME280;41562;44.330;23.802;2023-07-30T00:33:16;99849.63;;;21.03;96.25
55675;BME280;41562;44.330;23.802;2023-07-30T00:36:01;99853.63;;;20.93;96.92
55675;BME280;41562;44.330;23.802;2023-07-30T00:38:49;99844.25;;;21.06;96.34
55675;BME280;41562;44.330;23.802;2023-07-30T00:41:37;99842.34;;;20.91;97.33
55675;BME280;41562;44.330;23.802;2023-07-30T00:44:27;99844.00;;;20.96;97.01
55675;BME280;41562;44.330;23.802;2023-07-30T00:47:12;99838.03;;;20.90;97.56
55675;BME280;41562;44.330;23.802;2023-07-30T00:50:02;99838.63;;;20.99;96.72
55675;BME280;41562;44.330;23.802;2023-07-30T00:52:59;99846.63;;;20.92;97.51
55675;BME280;41562;44.330;23.802;2023-07-30T00:55:47;99844.41;;;20.82;98.01
55675;BME280;41562;44.330;23.802;2023-07-30T00:58:33;99840.69;;;21.84;94.13
55675;BME280;41562;44.330;23.802;2023-07-30T01:01:20;99830.84;;;22.72;88.63
55675;BME280;41562;44.330;23.802;2023-07-30T01:04:10;99835.75;;;22.05;90.04
55675;BME280;41562;44.330;23.802;2023-07-30T01:07:02;99837.53;;;21.32;94.08
55675;BME280;41562;44.330;23.802;2023-07-30T01:09:48;99830.84;;;21.13;95.61
55675;BME280;41562;44.330;23.802;2023-07-30T01:12:37;99838.22;;;20.97;96.76
55675;BME280;41562;44.330;23.802;2023-07-30T01:15:25;99838.47;;;20.92;96.98
55675;BME280;41562;44.330;23.802;2023-07-30T01:18:10;99842.41;;;20.79;97.54
55675;BME280;41562;44.330;23.802;2023-07-30T01:21:00;99838.97;;;20.82;97.61
55675;BME280;41562;44.330;23.802;2023-07-30T01:23:45;99831.53;;;20.79;97.88
55675;BME280;41562;44.330;23.802;2023-07-30T01:26:44;99834.41;;;20.70;98.04
55675;BME280;41562;44.330;23.802;2023-07-30T01:29:42;99837.03;;;20.67;98.40
55675;BME280;41562;44.330;23.802;2023-07-30T01:32:31;99836.00;;;20.71;97.79
55675;BME280;41562;44.330;23.802;2023-07-30T01:35:25;99839.13;;;20.58;98.56
55675;BME280;41562;44.330;23.802;2023-07-30T01:38:12;99834.38;;;20.55;98.76
55675;BME280;41562;44.330;23.802;2023-07-30T01:40:58;99839.50;;;20.44;99.48
55675;BME280;41562;44.330;23.802;2023-07-30T01:43:46;99840.69;;;20.59;98.69
55675;BME280;41562;44.330;23.802;2023-07-30T01:46:35;99840.78;;;20.62;98.79
55675;BME280;41562;44.330;23.802;2023-07-30T01:49:26;99838.72;;;20.43;99.87
55675;BME280;41562;44.330;23.802;2023-07-30T01:52:21;99849.69;;;20.47;99.61
55675;BME280;41562;44.330;23.802;2023-07-30T01:55:13;99843.34;;;20.43;100.00
55675;BME280;41562;44.330;23.802;2023-07-30T01:58:09;99840.03;;;20.34;100.00
55675;BME280;41562;44.330;23.802;2023-07-30T02:01:04;99848.38;;;20.29;100.00
55675;BME280;41562;44.330;23.802;2023-07-30T02:03:55;99844.16;;;20.31;100.00
55675;BME280;41562;44.330;23.802;2023-07-30T02:06:51;99836.97;;;20.23;100.00
55675;BME280;41562;44.330;23.802;2023-07-30T02:09:43;99846.59;;;20.21;100.00
55675;BME280;41562;44.330;23.802;2023-07-30T02:12:42;99837.56;;;20.04;100.00
55675;BME280;41562;44.330;23.802;2023-07-30T02:15:42;99851.16;;;20.04;100.00
55675;BME280;41562;44.330;23.802;2023-07-30T02:18:40;99842.25;;;20.04;100.00
55675;BME280;41562;44.330;23.802;2023-07-30T02:21:35;99850.75;;;19.90;100.00
55675;BME280;41562;44.330;23.802;2023-07-30T02:24:31;99852.88;;;19.97;100.00
55675;BME280;41562;44.330;23.802;2023-07-30T02:27:22;99850.59;;;19.99;100.00
55675;BME280;41562;44.330;23.802;2023-07-30T02:30:15;99848.56;;;20.08;100.00
55675;BME280;41562;44.330;23.802;2023-07-30T02:33:11;99842.56;;;20.02;100.00
55675;BME280;41562;44.330;23.802;2023-07-30T02:36:08;99845.88;;;19.96;100.00
55675;BME280;41562;44.330;23.802;2023-07-30T02:39:00;99845.44;;;21.21;97.00
55675;BME280;41562;44.330;23.802;2023-07-30T02:41:52;99840.69;;;22.00;91.66
55675;BME280;41562;44.330;23.802;2023-07-30T02:44:44;99841.34;;;22.13;89.99
55675;BME280;41562;44.330;23.802;2023-07-30T02:47:36;99841.59;;;22.27;88.79
55675;BME280;41562;44.330;23.802;2023-07-30T02:50:31;99844.56;;;22.18;89.18
55675;BME280;41562;44.330;23.802;2023-07-30T02:53:26;99848.50;;;22.40;87.55
55675;BME280;41562;44.330;23.802;2023-07-30T02:56:23;99847.91;;;22.69;85.99
55675;BME280;41562;44.330;23.802;2023-07-30T02:59:15;99845.69;;;22.75;85.07
55675;BME280;41562;44.330;23.802;2023-07-30T03:02:10;99846.63;;;22.44;86.80
55675;BME280;41562;44.330;23.802;2023-07-30T03:05:05;99850.50;;;22.43;86.10
55675;BME280;41562;44.330;23.802;2023-07-30T03:08:01;99857.75;;;22.55;85.50
55675;BME280;41562;44.330;23.802;2023-07-30T03:10:52;99859.66;;;22.54;85.35
55675;BME280;41562;44.330;23.802;2023-07-30T03:13:48;99860.25;;;22.44;86.32
55675;BME280;41562;44.330;23.802;2023-07-30T03:16:45;99863.09;;;22.51;85.28
55675;BME280;41562;44.330;23.802;2023-07-30T03:19:40;99856.75;;;22.43;85.61
55675;BME280;41562;44.330;23.802;2023-07-30T03:22:36;99861.59;;;22.54;84.85
55675;BME280;41562;44.330;23.802;2023-07-30T03:25:27;99852.34;;;22.39;85.68
55675;BME280;41562;44.330;23.802;2023-07-30T03:28:26;99854.09;;;22.28;86.14
55675;BME280;41562;44.330;23.802;2023-07-30T03:31:18;99851.00;;;21.94;89.29
55675;BME280;41562;44.330;23.802;2023-07-30T03:34:16;99852.78;;;22.02;88.91
55675;BME280;41562;44.330;23.802;2023-07-30T03:37:07;99852.13;;;22.09;88.57
55675;BME280;41562;44.330;23.802;2023-07-30T03:40:00;99856.53;;;21.63;89.27
55675;BME280;41562;44.330;23.802;2023-07-30T03:42:51;99855.50;;;22.22;86.29
55675;BME280;41562;44.330;23.802;2023-07-30T03:45:47;99850.63;;;21.77;88.62
55675;BME280;41562;44.330;23.802;2023-07-30T03:48:39;99863.59;;;21.83;88.17
55675;BME280;41562;44.330;23.802;2023-07-30T03:51:31;99855.22;;;22.08;87.08
55675;BME280;41562;44.330;23.802;2023-07-30T03:54:24;99863.22;;;22.00;87.01
55675;BME280;41562;44.330;23.802;2023-07-30T03:57:15;99861.13;;;21.94;87.31
55675;BME280;41562;44.330;23.802;2023-07-30T04:00:07;99866.25;;;21.95;87.39
55675;BME280;41562;44.330;23.802;2023-07-30T04:03:06;99869.63;;;22.27;85.84
55675;BME280;41562;44.330;23.802;2023-07-30T04:06:01;99872.66;;;22.22;86.06
55675;BME280;41562;44.330;23.802;2023-07-30T04:08:53;99876.63;;;22.44;84.85
55675;BME280;41562;44.330;23.802;2023-07-30T04:11:51;99868.00;;;22.23;85.86
55675;BME280;41562;44.330;23.802;2023-07-30T04:14:46;99865.75;;;22.09;86.84
55675;BME280;41562;44.330;23.802;2023-07-30T04:17:42;99870.28;;;21.86;88.22
55675;BME280;41562;44.330;23.802;2023-07-30T04:20:39;99877.81;;;21.92;88.07
55675;BME280;41562;44.330;23.802;2023-07-30T04:23:32;99883.09;;;22.01;87.91
55675;BME280;41562;44.330;23.802;2023-07-30T04:26:26;99881.91;;;22.18;87.27
55675;BME280;41562;44.330;23.802;2023-07-30T04:29:21;99888.28;;;22.25;87.07
55675;BME280;41562;44.330;23.802;2023-07-30T04:32:15;99880.97;;;22.10;88.22
55675;BME280;41562;44.330;23.802;2023-07-30T04:35:07;99884.25;;;21.84;89.38
55675;BME280;41562;44.330;23.802;2023-07-30T04:38:02;99884.53;;;21.79;90.37
55675;BME280;41562;44.330;23.802;2023-07-30T04:40:57;99889.56;;;21.46;92.29
55675;BME280;41562;44.330;23.802;2023-07-30T04:43:52;99889.22;;;21.32;93.59
55675;BME280;41562;44.330;23.802;2023-07-30T04:46:43;99881.25;;;21.89;90.86
55675;BME280;41562;44.330;23.802;2023-07-30T04:49:36;99894.75;;;22.01;90.08
55675;BME280;41562;44.330;23.802;2023-07-30T04:52:28;99886.28;;;21.87;91.17
55675;BME280;41562;44.330;23.802;2023-07-30T04:55:24;99895.38;;;22.30;89.10
55675;BME280;41562;44.330;23.802;2023-07-30T04:58:15;99902.97;;;22.98;86.46
55675;BME280;41562;44.330;23.802;2023-07-30T05:01:07;99902.63;;;23.22;86.22
55675;BME280;41562;44.330;23.802;2023-07-30T05:04:03;99897.13;;;22.57;87.72
55675;BME280;41562;44.330;23.802;2023-07-30T05:06:56;99904.81;;;23.13;89.89
55675;BME280;41562;44.330;23.802;2023-07-30T05:10:00;99902.13;;;22.36;93.62
55675;BME280;41562;44.330;23.802;2023-07-30T05:12:52;99911.97;;;22.79;90.44
55675;BME280;41562;44.330;23.802;2023-07-30T05:15:50;99911.91;;;22.95;87.89
55675;BME280;41562;44.330;23.802;2023-07-30T05:18:49;99915.63;;;22.87;89.52
55675;BME280;41562;44.330;23.802;2023-07-30T05:21:40;99911.66;;;22.65;88.49
55675;BME280;41562;44.330;23.802;2023-07-30T05:24:35;99911.38;;;23.31;86.99
55675;BME280;41562;44.330;23.802;2023-07-30T05:27:28;99902.41;;;23.08;86.90
55675;BME280;41562;44.330;23.802;2023-07-30T05:30:26;99910.72;;;22.96;87.42
55675;BME280;41562;44.330;23.802;2023-07-30T05:33:27;99901.38;;;22.97;89.67
55675;BME280;41562;44.330;23.802;2023-07-30T05:36:19;99904.88;;;23.16;87.97
55675;BME280;41562;44.330;23.802;2023-07-30T05:39:11;99899.69;;;22.89;89.75
55675;BME280;41562;44.330;23.802;2023-07-30T05:42:04;99910.44;;;23.23;90.15
55675;BME280;41562;44.330;23.802;2023-07-30T05:44:59;99907.38;;;23.25;88.59
55675;BME280;41562;44.330;23.802;2023-07-30T05:47:57;99915.06;;;23.65;89.27
55675;BME280;41562;44.330;23.802;2023-07-30T05:50:53;99909.41;;;23.09;87.77
55675;BME280;41562;44.330;23.802;2023-07-30T05:53:47;99915.41;;;23.18;87.99
55675;BME280;41562;44.330;23.802;2023-07-30T05:56:16;99909.41;;;23.09;88.47
55675;BME280;41562;44.330;23.802;2023-07-30T05:58:47;99913.56;;;23.03;87.99
55675;BME280;41562;44.330;23.802;2023-07-30T06:01:21;99908.81;;;23.19;86.69
55675;BME280;41562;44.330;23.802;2023-07-30T06:03:55;99908.63;;;23.31;86.28
55675;BME280;41562;44.330;23.802;2023-07-30T06:06:26;99905.44;;;23.48;85.73
55675;BME280;41562;44.330;23.802;2023-07-30T06:08:57;99903.41;;;23.68;83.94
55675;BME280;41562;44.330;23.802;2023-07-30T06:11:25;99907.75;;;23.73;84.53
55675;BME280;41562;44.330;23.802;2023-07-30T06:13:55;99906.16;;;23.94;83.53
55675;BME280;41562;44.330;23.802;2023-07-30T06:16:29;99902.78;;;24.34;80.95
55675;BME280;41562;44.330;23.802;2023-07-30T06:19:01;99898.63;;;24.44;80.48
55675;BME280;41562;44.330;23.802;2023-07-30T06:21:30;99904.75;;;24.67;79.59
55675;BME280;41562;44.330;23.802;2023-07-30T06:24:04;99908.19;;;24.91;78.96
55675;BME280;41562;44.330;23.802;2023-07-30T06:26:38;99899.88;;;25.24;77.44
55675;BME280;41562;44.330;23.802;2023-07-30T06:29:09;99898.19;;;25.53;76.70
55675;BME280;41562;44.330;23.802;2023-07-30T06:31:36;99890.97;;;25.78;76.22
55675;BME280;41562;44.330;23.802;2023-07-30T06:34:14;99891.81;;;25.89;74.88
55675;BME280;41562;44.330;23.802;2023-07-30T06:36:46;99882.53;;;26.12;74.25
55675;BME280;41562;44.330;23.802;2023-07-30T06:39:20;99878.25;;;26.18;72.95
55675;BME280;41562;44.330;23.802;2023-07-30T06:41:51;99869.75;;;26.33;72.17
55675;BME280;41562;44.330;23.802;2023-07-30T06:44:19;99877.66;;;26.56;70.75
55675;BME280;41562;44.330;23.802;2023-07-30T06:47:12;99872.63;;;26.76;68.77
55675;BME280;41562;44.330;23.802;2023-07-30T06:49:58;99871.13;;;26.93;68.84
55675;BME280;41562;44.330;23.802;2023-07-30T06:52:50;99877.41;;;27.04;68.11
55675;BME280;41562;44.330;23.802;2023-07-30T06:55:44;99878.16;;;26.94;68.00
55675;BME280;41562;44.330;23.802;2023-07-30T06:58:31;99873.09;;;27.28;67.27
55675;BME280;41562;44.330;23.802;2023-07-30T07:00:58;99868.00;;;27.44;68.56
55675;BME280;41562;44.330;23.802;2023-07-30T07:03:29;99869.56;;;27.48;66.81
55675;BME280;41562;44.330;23.802;2023-07-30T07:05:58;99864.06;;;27.13;65.59
55675;BME280;41562;44.330;23.802;2023-07-30T07:08:28;99868.00;;;27.47;65.52
55675;BME280;41562;44.330;23.802;2023-07-30T07:11:16;99861.31;;;27.77;64.98
55675;BME280;41562;44.330;23.802;2023-07-30T07:14:07;99863.69;;;27.68;65.31
55675;BME280;41562;44.330;23.802;2023-07-30T07:16:55;99853.03;;;27.94;64.98
55675;BME280;41562;44.330;23.802;2023-07-30T07:19:43;99853.00;;;27.98;63.52
55675;BME280;41562;44.330;23.802;2023-07-30T07:22:31;99848.66;;;28.08;63.91
55675;BME280;41562;44.330;23.802;2023-07-30T07:25:20;99840.34;;;28.32;63.40
55675;BME280;41562;44.330;23.802;2023-07-30T07:28:15;99836.22;;;28.65;60.00
55675;BME280;41562;44.330;23.802;2023-07-30T07:31:03;99845.25;;;28.66;60.82
55675;BME280;41562;44.330;23.802;2023-07-30T07:33:52;99834.00;;;28.43;60.73
55675;BME280;41562;44.330;23.802;2023-07-30T07:36:39;99837.50;;;28.47;61.88
55675;BME280;41562;44.330;23.802;2023-07-30T07:39:13;99826.84;;;28.56;57.48
55675;BME280;41562;44.330;23.802;2023-07-30T07:41:43;99832.41;;;28.49;58.88
55675;BME280;41562;44.330;23.802;2023-07-30T07:44:17;99825.69;;;28.53;58.24
55675;BME280;41562;44.330;23.802;2023-07-30T07:46:45;99835.28;;;28.93;59.98
55675;BME280;41562;44.330;23.802;2023-07-30T07:49:16;99830.81;;;29.10;59.49
55675;BME280;41562;44.330;23.802;2023-07-30T07:51:45;99829.63;;;29.14;58.09
55675;BME280;41562;44.330;23.802;2023-07-30T07:54:16;99826.72;;;29.29;56.76
55675;BME280;41562;44.330;23.802;2023-07-30T07:56:46;99829.53;;;29.22;60.16
55675;BME280;41562;44.330;23.802;2023-07-30T07:59:18;99827.03;;;29.41;60.56
55675;BME280;41562;44.330;23.802;2023-07-30T08:01:52;99815.84;;;29.59;59.36
55675;BME280;41562;44.330;23.802;2023-07-30T08:04:33;99813.00;;;29.66;57.65
55675;BME280;41562;44.330;23.802;2023-07-30T08:07:01;99809.34;;;29.76;55.69
55675;BME280;41562;44.330;23.802;2023-07-30T08:09:32;99812.19;;;29.69;52.94
55675;BME280;41562;44.330;23.802;2023-07-30T08:12:00;99804.66;;;29.73;54.77
55675;BME280;41562;44.330;23.802;2023-07-30T08:14:34;99810.00;;;29.87;55.55
55675;BME280;41562;44.330;23.802;2023-07-30T08:17:01;99813.88;;;29.97;54.43
55675;BME280;41562;44.330;23.802;2023-07-30T08:19:31;99804.19;;;30.16;55.92
55675;BME280;41562;44.330;23.802;2023-07-30T08:22:11;99804.91;;;30.20;52.83
55675;BME280;41562;44.330;23.802;2023-07-30T08:24:42;99799.66;;;30.29;52.40
55675;BME280;41562;44.330;23.802;2023-07-30T08:27:10;99805.72;;;30.47;53.92
55675;BME280;41562;44.330;23.802;2023-07-30T08:29:43;99808.75;;;30.56;52.38
55675;BME280;41562;44.330;23.802;2023-07-30T08:32:19;99806.47;;;30.51;49.68
55675;BME280;41562;44.330;23.802;2023-07-30T08:34:51;99807.16;;;30.59;48.49
55675;BME280;41562;44.330;23.802;2023-07-30T08:37:18;99802.53;;;30.52;47.38
55675;BME280;41562;44.330;23.802;2023-07-30T08:39:54;99802.06;;;30.57;49.44
55675;BME280;41562;44.330;23.802;2023-07-30T08:42:25;99804.63;;;30.41;48.32
55675;BME280;41562;44.330;23.802;2023-07-30T08:44:52;99799.81;;;30.49;49.11
55675;BME280;41562;44.330;23.802;2023-07-30T08:47:23;99799.09;;;30.71;50.85
55675;BME280;41562;44.330;23.802;2023-07-30T08:49:56;99805.22;;;30.83;50.41
55675;BME280;41562;44.330;23.802;2023-07-30T08:52:31;99801.66;;;30.82;49.76
55675;BME280;41562;44.330;23.802;2023-07-30T08:55:03;99806.78;;;30.84;49.78
55675;BME280;41562;44.330;23.802;2023-07-30T08:57:37;99812.97;;;30.91;50.84
55675;BME280;41562;44.330;23.802;2023-07-30T09:00:08;99809.25;;;31.01;48.49
55675;BME280;41562;44.330;23.802;2023-07-30T09:03:02;99803.81;;;30.98;48.33
55675;BME280;41562;44.330;23.802;2023-07-30T09:05:34;99809.22;;;31.05;46.66
55675;BME280;41562;44.330;23.802;2023-07-30T09:08:05;99802.31;;;31.17;47.69
55675;BME280;41562;44.330;23.802;2023-07-30T09:10:37;99799.50;;;31.20;46.89
55675;BME280;41562;44.330;23.802;2023-07-30T09:13:05;99805.88;;;31.17;45.71
55675;BME280;41562;44.330;23.802;2023-07-30T09:15:39;99799.19;;;31.14;46.73
55675;BME280;41562;44.330;23.802;2023-07-30T09:18:16;99791.56;;;31.22;44.18
55675;BME280;41562;44.330;23.802;2023-07-30T09:20:48;99791.97;;;31.21;45.68
55675;BME280;41562;44.330;23.802;2023-07-30T09:23:18;99779.28;;;31.00;45.03
55675;BME280;41562;44.330;23.802;2023-07-30T09:25:52;99779.28;;;31.00;44.94
55675;BME280;41562;44.330;23.802;2023-07-30T09:28:30;99773.91;;;31.16;46.84
55675;BME280;41562;44.330;23.802;2023-07-30T09:31:03;99770.38;;;31.15;45.18
55675;BME280;41562;44.330;23.802;2023-07-30T09:33:48;99771.66;;;31.31;46.67
55675;BME280;41562;44.330;23.802;2023-07-30T09:36:18;99763.25;;;31.38;46.84
55675;BME280;41562;44.330;23.802;2023-07-30T09:38:46;99762.75;;;31.43;47.60
55675;BME280;41562;44.330;23.802;2023-07-30T09:41:23;99760.44;;;31.41;47.04
55675;BME280;41562;44.330;23.802;2023-07-30T09:43:58;99753.97;;;31.48;47.35
55675;BME280;41562;44.330;23.802;2023-07-30T09:46:29;99753.06;;;31.54;46.93
55675;BME280;41562;44.330;23.802;2023-07-30T09:49:00;99753.66;;;31.66;45.25
55675;BME280;41562;44.330;23.802;2023-07-30T09:51:28;99747.22;;;31.49;45.41
55675;BME280;41562;44.330;23.802;2023-07-30T09:54:01;99744.53;;;31.45;45.78
55675;BME280;41562;44.330;23.802;2023-07-30T09:56:28;99741.16;;;31.58;46.69
55675;BME280;41562;44.330;23.802;2023-07-30T09:59:09;99733.63;;;31.58;47.76
55675;BME280;41562;44.330;23.802;2023-07-30T10:01:46;99730.34;;;31.67;46.51
55675;BME280;41562;44.330;23.802;2023-07-30T10:04:23;99727.56;;;31.67;48.03
55675;BME280;41562;44.330;23.802;2023-07-30T10:06:58;99730.88;;;31.58;46.17
55675;BME280;41562;44.330;23.802;2023-07-30T10:09:35;99719.81;;;31.58;45.83
55675;BME280;41562;44.330;23.802;2023-07-30T10:12:04;99718.75;;;31.32;47.79
55675;BME280;41562;44.330;23.802;2023-07-30T10:14:32;99713.91;;;30.93;48.93
55675;BME280;41562;44.330;23.802;2023-07-30T10:17:00;99719.34;;;30.73;49.10
55675;BME280;41562;44.330;23.802;2023-07-30T10:19:28;99718.78;;;30.86;47.85
55675;BME280;41562;44.330;23.802;2023-07-30T10:24:55;99713.91;;;31.36;47.02
55675;BME280;41562;44.330;23.802;2023-07-30T10:27:27;99711.22;;;31.52;45.80
55675;BME280;41562;44.330;23.802;2023-07-30T10:30:17;99704.25;;;31.68;44.61
55675;BME280;41562;44.330;23.802;2023-07-30T10:35:40;99694.25;;;31.74;42.97
55675;BME280;41562;44.330;23.802;2023-07-30T10:38:28;99691.19;;;31.68;42.45
55675;BME280;41562;44.330;23.802;2023-07-30T10:43:39;99680.28;;;31.41;44.15
55675;BME280;41562;44.330;23.802;2023-07-30T10:46:09;99683.66;;;31.69;43.71
55675;BME280;41562;44.330;23.802;2023-07-30T10:48:39;99674.22;;;31.86;43.14
55675;BME280;41562;44.330;23.802;2023-07-30T10:51:17;99667.44;;;31.71;41.84
55675;BME280;41562;44.330;23.802;2023-07-30T10:53:50;99658.31;;;31.90;42.62
55675;BME280;41562;44.330;23.802;2023-07-30T10:56:23;99660.59;;;31.55;41.85
55675;BME280;41562;44.330;23.802;2023-07-30T10:58:51;99670.72;;;31.66;41.99
55675;BME280;41562;44.330;23.802;2023-07-30T11:01:31;99658.13;;;31.81;43.11
55675;BME280;41562;44.330;23.802;2023-07-30T11:04:19;99660.94;;;31.97;41.65
55675;BME280;41562;44.330;23.802;2023-07-30T11:06:51;99650.81;;;31.90;42.53
55675;BME280;41562;44.330;23.802;2023-07-30T11:09:24;99659.38;;;31.96;43.37
55675;BME280;41562;44.330;23.802;2023-07-30T11:11:56;99654.19;;;31.98;41.86
55675;BME280;41562;44.330;23.802;2023-07-30T11:14:27;99663.94;;;32.22;43.42
55675;BME280;41562;44.330;23.802;2023-07-30T11:16:59;99653.03;;;32.15;42.97
55675;BME280;41562;44.330;23.802;2023-07-30T11:19:29;99657.00;;;32.14;42.13
55675;BME280;41562;44.330;23.802;2023-07-30T11:22:03;99657.88;;;32.27;42.19
55675;BME280;41562;44.330;23.802;2023-07-30T11:24:36;99645.88;;;31.98;40.58
55675;BME280;41562;44.330;23.802;2023-07-30T11:27:04;99640.00;;;31.96;43.40
55675;BME280;41562;44.330;23.802;2023-07-30T11:29:36;99634.66;;;32.05;42.83
55675;BME280;41562;44.330;23.802;2023-07-30T11:32:04;99637.22;;;31.96;43.23
55675;BME280;41562;44.330;23.802;2023-07-30T11:34:35;99641.41;;;32.04;42.33
55675;BME280;41562;44.330;23.802;2023-07-30T11:37:10;99647.88;;;31.98;42.09
55675;BME280;41562;44.330;23.802;2023-07-30T11:39:42;99636.00;;;31.81;42.91
55675;BME280;41562;44.330;23.802;2023-07-30T11:42:14;99632.53;;;31.77;45.30
55675;BME280;41562;44.330;23.802;2023-07-30T11:44:48;99629.72;;;31.97;44.28
55675;BME280;41562;44.330;23.802;2023-07-30T11:47:23;99624.88;;;32.01;42.64
55675;BME280;41562;44.330;23.802;2023-07-30T11:49:57;99622.88;;;31.85;42.52
55675;BME280;41562;44.330;23.802;2023-07-30T11:52:31;99621.22;;;31.87;43.85
55675;BME280;41562;44.330;23.802;2023-07-30T11:55:02;99613.13;;;31.97;42.90
55675;BME280;41562;44.330;23.802;2023-07-30T11:57:36;99615.28;;;32.05;42.50
55675;BME280;41562;44.330;23.802;2023-07-30T12:00:22;99605.06;;;32.02;40.58
55675;BME280;41562;44.330;23.802;2023-07-30T12:03:15;99610.34;;;32.13;42.10
55675;BME280;41562;44.330;23.802;2023-07-30T12:06:05;99599.72;;;31.95;41.43
55675;BME280;41562;44.330;23.802;2023-07-30T12:08:56;99579.31;;;31.73;42.21
55675;BME280;41562;44.330;23.802;2023-07-30T12:11:55;99588.22;;;31.80;42.03
55675;BME280;41562;44.330;23.802;2023-07-30T12:14:52;99578.09;;;31.74;42.71
55675;BME280;41562;44.330;23.802;2023-07-30T12:17:41;99581.91;;;31.96;44.51
55675;BME280;41562;44.330;23.802;2023-07-30T12:20:27;99572.06;;;31.95;42.74
55675;BME280;41562;44.330;23.802;2023-07-30T12:23:18;99574.81;;;31.79;42.29
55675;BME280;41562;44.330;23.802;2023-07-30T12:26:03;99564.78;;;31.69;43.85
55675;BME280;41562;44.330;23.802;2023-07-30T12:28:54;99557.88;;;31.61;43.64
55675;BME280;41562;44.330;23.802;2023-07-30T12:31:45;99556.22;;;31.63;43.94
55675;BME280;41562;44.330;23.802;2023-07-30T12:34:34;99562.53;;;31.64;44.39
55675;BME280;41562;44.330;23.802;2023-07-30T12:37:22;99558.22;;;31.79;44.91
55675;BME280;41562;44.330;23.802;2023-07-30T12:40:16;99559.94;;;31.73;42.88
55675;BME280;41562;44.330;23.802;2023-07-30T12:43:05;99557.97;;;31.73;44.31
55675;BME280;41562;44.330;23.802;2023-07-30T12:45:53;99544.81;;;31.61;43.23
55675;BME280;41562;44.330;23.802;2023-07-30T12:48:42;99547.22;;;31.75;44.97
55675;BME280;41562;44.330;23.802;2023-07-30T12:51:33;99545.44;;;31.85;44.78
55675;BME280;41562;44.330;23.802;2023-07-30T12:54:19;99552.88;;;32.04;42.88
55675;BME280;41562;44.330;23.802;2023-07-30T12:57:05;99551.00;;;32.17;42.62
55675;BME280;41562;44.330;23.802;2023-07-30T12:59:50;99539.72;;;32.08;43.18
55675;BME280;41562;44.330;23.802;2023-07-30T13:02:42;99539.38;;;31.90;44.14
55675;BME280;41562;44.330;23.802;2023-07-30T13:05:31;99530.97;;;31.93;44.51
55675;BME280;41562;44.330;23.802;2023-07-30T13:08:16;99536.94;;;31.76;44.40
55675;BME280;41562;44.330;23.802;2023-07-30T13:11:02;99530.41;;;31.86;45.47
55675;BME280;41562;44.330;23.802;2023-07-30T13:13:53;99528.66;;;31.92;43.71
55675;BME280;41562;44.330;23.802;2023-07-30T13:16:41;99531.75;;;31.94;44.04
55675;BME280;41562;44.330;23.802;2023-07-30T13:19:27;99524.19;;;31.98;44.55
55675;BME280;41562;44.330;23.802;2023-07-30T13:22:16;99527.03;;;31.78;44.28
55675;BME280;41562;44.330;23.802;2023-07-30T13:25:03;99525.50;;;31.58;44.71
55675;BME280;41562;44.330;23.802;2023-07-30T13:27:52;99517.31;;;31.54;45.20
55675;BME280;41562;44.330;23.802;2023-07-30T13:30:43;99515.00;;;31.69;45.41
55675;BME280;41562;44.330;23.802;2023-07-30T13:33:28;99506.94;;;31.58;45.42
55675;BME280;41562;44.330;23.802;2023-07-30T13:36:14;99508.22;;;31.53;45.63
55675;BME280;41562;44.330;23.802;2023-07-30T13:39:06;99504.94;;;31.59;45.83
55675;BME280;41562;44.330;23.802;2023-07-30T13:41:51;99504.75;;;31.49;46.21
55675;BME280;41562;44.330;23.802;2023-07-30T13:44:40;99497.03;;;31.61;46.56
55675;BME280;41562;44.330;23.802;2023-07-30T13:47:25;99491.50;;;31.61;44.91
55675;BME280;41562;44.330;23.802;2023-07-30T13:50:21;99486.72;;;31.45;45.06
55675;BME280;41562;44.330;23.802;2023-07-30T13:53:16;99488.44;;;31.39;46.54
55675;BME280;41562;44.330;23.802;2023-07-30T13:56:05;99476.84;;;31.44;46.52
55675;BME280;41562;44.330;23.802;2023-07-30T13:59:03;99472.19;;;31.41;46.31
55675;BME280;41562;44.330;23.802;2023-07-30T14:01:58;99474.53;;;31.42;47.15
55675;BME280;41562;44.330;23.802;2023-07-30T14:04:57;99468.31;;;31.38;46.06
55675;BME280;41562;44.330;23.802;2023-07-30T14:07:57;99457.19;;;31.42;46.34
55675;BME280;41562;44.330;23.802;2023-07-30T14:10:50;99451.28;;;31.24;45.51
55675;BME280;41562;44.330;23.802;2023-07-30T14:13:23;99451.34;;;31.20;46.48
55675;BME280;41562;44.330;23.802;2023-07-30T14:15:56;99453.44;;;31.16;46.69
55675;BME280;41562;44.330;23.802;2023-07-30T14:18:24;99442.03;;;31.14;46.17
55675;BME280;41562;44.330;23.802;2023-07-30T14:20:54;99438.50;;;31.13;48.02
55675;BME280;41562;44.330;23.802;2023-07-30T14:23:22;99437.72;;;31.13;46.92
55675;BME280;41562;44.330;23.802;2023-07-30T14:25:53;99435.09;;;31.06;46.99